createdAt,value
2023-03-01T00:00:57.529Z,963.87
2023-03-01T00:01:54.518Z,963.85
2023-03-01T00:02:54.461Z,963.87
2023-03-01T00:03:54.472Z,963.88
2023-03-01T00:04:54.459Z,963.91
2023-03-01T00:05:54.431Z,963.87
2023-03-01T00:06:54.445Z,963.87
2023-03-01T00:07:54.403Z,963.83
2023-03-01T00:08:54.421Z,963.87
2023-03-01T00:09:54.393Z,963.86
2023-03-01T00:10:54.442Z,963.86
2023-03-01T00:11:54.362Z,963.88
2023-03-01T00:12:54.386Z,963.83
2023-03-01T00:13:54.344Z,963.84
2023-03-01T00:14:54.330Z,963.84
2023-03-01T00:15:57.326Z,963.83
2023-03-01T00:16:54.398Z,963.79
2023-03-01T00:17:54.302Z,963.85
2023-03-01T00:18:54.319Z,963.80
2023-03-01T00:19:54.286Z,963.78
2023-03-01T00:20:54.280Z,963.76
2023-03-01T00:21:54.401Z,963.75
2023-03-01T00:22:54.272Z,963.73
2023-03-01T00:23:54.242Z,963.70
2023-03-01T00:24:54.253Z,963.69
2023-03-01T00:25:54.249Z,963.69
2023-03-01T00:26:54.207Z,963.69
2023-03-01T00:27:54.202Z,963.65
2023-03-01T00:28:54.357Z,963.66
2023-03-01T00:29:55.177Z,963.67
2023-03-01T00:30:57.236Z,963.64
2023-03-01T00:31:54.225Z,963.68
2023-03-01T00:32:54.213Z,963.65
2023-03-01T00:33:54.159Z,963.66
2023-03-01T00:34:54.167Z,963.61
2023-03-01T00:35:54.236Z,963.63
2023-03-01T00:36:54.122Z,963.64
2023-03-01T00:37:54.146Z,963.63
2023-03-01T00:38:54.101Z,963.64
2023-03-01T00:39:54.297Z,963.58
2023-03-01T00:40:54.102Z,963.59
2023-03-01T00:41:54.085Z,963.62
2023-03-01T00:42:54.079Z,963.60
2023-03-01T00:43:54.039Z,963.59
2023-03-01T00:44:54.050Z,963.60
2023-03-01T00:45:57.048Z,963.61
2023-03-01T00:46:54.074Z,963.57
2023-03-01T00:47:53.996Z,963.59
2023-03-01T00:48:53.989Z,963.60
2023-03-01T00:49:53.989Z,963.58
2023-03-01T00:50:54.001Z,963.59
2023-03-01T00:51:53.961Z,963.55
2023-03-01T00:52:53.951Z,963.58
2023-03-01T00:53:53.942Z,963.57
2023-03-01T00:54:53.970Z,963.59
2023-03-01T00:55:53.913Z,963.60
2023-03-01T00:56:53.910Z,963.56
2023-03-01T00:57:53.928Z,963.55
2023-03-01T00:58:53.920Z,963.51
2023-03-01T00:59:53.923Z,963.52
2023-03-01T01:00:56.870Z,963.56
2023-03-01T01:01:53.908Z,963.54
2023-03-01T01:02:53.869Z,963.53
2023-03-01T01:03:53.855Z,963.50
2023-03-01T01:04:53.852Z,963.53
2023-03-01T01:05:53.816Z,963.52
2023-03-01T01:06:53.823Z,963.53
2023-03-01T01:07:53.812Z,963.46
2023-03-01T01:09:00.874Z,963.43
2023-03-01T01:09:53.784Z,963.45
2023-03-01T01:10:53.789Z,963.42
2023-03-01T01:11:53.775Z,963.41
2023-03-01T01:12:53.893Z,963.41
2023-03-01T01:13:53.733Z,963.36
2023-03-01T01:14:53.750Z,963.38
2023-03-01T01:15:56.733Z,963.38
2023-03-01T01:16:53.772Z,963.35
2023-03-01T01:17:53.682Z,963.32
2023-03-01T01:18:53.705Z,963.38
2023-03-01T01:19:53.664Z,963.33
2023-03-01T01:20:53.669Z,963.36
2023-03-01T01:21:53.672Z,963.36
2023-03-01T01:22:53.661Z,963.35
2023-03-01T01:23:53.622Z,963.30
2023-03-01T01:24:53.606Z,963.33
2023-03-01T01:25:53.636Z,963.32
2023-03-01T01:26:53.592Z,963.31
2023-03-01T01:27:53.634Z,963.31
2023-03-01T01:28:53.567Z,963.27
2023-03-01T01:29:53.559Z,963.28
2023-03-01T01:30:56.572Z,963.25
2023-03-01T01:31:53.601Z,963.26
2023-03-01T01:32:53.525Z,963.20
2023-03-01T01:33:53.524Z,963.22
2023-03-01T01:34:53.557Z,963.17
2023-03-01T01:35:53.572Z,963.14
2023-03-01T01:36:53.518Z,963.14
2023-03-01T01:37:53.481Z,963.11
2023-03-01T01:38:53.609Z,963.07
2023-03-01T01:39:53.482Z,963.12
2023-03-01T01:40:53.458Z,963.10
2023-03-01T01:41:53.446Z,963.12
2023-03-01T01:42:53.428Z,963.11
2023-03-01T01:43:53.436Z,963.03
2023-03-01T01:44:53.435Z,963.08
2023-03-01T01:45:56.384Z,963.13
2023-03-01T01:46:53.409Z,963.07
2023-03-01T01:47:53.393Z,963.06
2023-03-01T01:48:53.368Z,963.08
2023-03-01T01:49:53.594Z,963.04
2023-03-01T01:50:53.366Z,963.06
2023-03-01T01:51:53.361Z,963.04
2023-03-01T01:52:53.318Z,963.02
2023-03-01T01:53:53.306Z,962.99
2023-03-01T01:54:53.300Z,962.98
2023-03-01T01:55:53.307Z,962.99
2023-03-01T01:56:53.297Z,962.98
2023-03-01T01:57:53.288Z,962.99
2023-03-01T01:58:53.288Z,962.97
2023-03-01T01:59:53.278Z,962.98
2023-03-01T02:00:56.302Z,962.94
2023-03-01T02:01:53.266Z,962.99
2023-03-01T02:02:53.381Z,963.01
2023-03-01T02:03:53.242Z,962.94
2023-03-01T02:04:53.197Z,962.91
2023-03-01T02:05:55.578Z,962.93
2023-03-01T02:06:53.188Z,962.95
2023-03-01T02:07:53.166Z,962.90
2023-03-01T02:08:53.162Z,962.87
2023-03-01T02:09:53.148Z,962.84
2023-03-01T02:10:53.170Z,962.83
2023-03-01T02:11:53.181Z,962.85
2023-03-01T02:12:53.161Z,962.81
2023-03-01T02:13:53.129Z,962.76
2023-03-01T02:14:53.122Z,962.76
2023-03-01T02:15:56.139Z,962.78
2023-03-01T02:16:53.086Z,962.81
2023-03-01T02:17:53.079Z,962.79
2023-03-01T02:18:53.053Z,962.84
2023-03-01T02:19:53.070Z,962.75
2023-03-01T02:20:53.062Z,962.76
2023-03-01T02:21:53.050Z,962.80
2023-03-01T02:22:53.162Z,962.81
2023-03-01T02:23:53.034Z,962.80
2023-03-01T02:24:53.035Z,962.79
2023-03-01T02:25:52.973Z,962.75
2023-03-01T02:26:53.022Z,962.76
2023-03-01T02:27:52.968Z,962.72
2023-03-01T02:28:52.974Z,962.76
2023-03-01T02:29:52.975Z,962.71
2023-03-01T02:30:56.000Z,962.66
2023-03-01T02:31:53.009Z,962.64
2023-03-01T02:32:53.022Z,962.60
2023-03-01T02:33:52.901Z,962.61
2023-03-01T02:34:52.882Z,962.59
2023-03-01T02:35:52.976Z,962.65
2023-03-01T02:36:52.852Z,962.56
2023-03-01T02:37:52.890Z,962.61
2023-03-01T02:38:52.885Z,962.57
2023-03-01T02:39:52.865Z,962.61
2023-03-01T02:40:52.869Z,962.56
2023-03-01T02:41:52.879Z,962.59
2023-03-01T02:42:52.846Z,962.59
2023-03-01T02:43:52.986Z,962.57
2023-03-01T02:44:52.865Z,962.54
2023-03-01T02:45:55.794Z,962.55
2023-03-01T02:46:52.808Z,962.55
2023-03-01T02:47:52.741Z,962.55
2023-03-01T02:48:52.739Z,962.55
2023-03-01T02:49:52.752Z,962.55
2023-03-01T02:50:52.736Z,962.55
2023-03-01T02:51:52.942Z,962.55
2023-03-01T02:52:53.147Z,962.49
2023-03-01T02:53:52.836Z,962.50
2023-03-01T02:54:52.705Z,962.50
2023-03-01T02:55:52.691Z,962.47
2023-03-01T02:56:52.686Z,962.49
2023-03-01T02:57:52.638Z,962.49
2023-03-01T02:58:52.641Z,962.48
2023-03-01T02:59:52.644Z,962.48
2023-03-01T03:00:55.659Z,962.46
2023-03-01T03:01:52.624Z,962.39
2023-03-01T03:02:52.618Z,962.41
2023-03-01T03:03:52.766Z,962.42
2023-03-01T03:04:52.604Z,962.42
2023-03-01T03:05:52.586Z,962.39
2023-03-01T03:06:52.547Z,962.42
2023-03-01T03:07:52.581Z,962.38
2023-03-01T03:08:52.518Z,962.41
2023-03-01T03:09:52.515Z,962.38
2023-03-01T03:10:52.515Z,962.40
2023-03-01T03:11:52.498Z,962.41
2023-03-01T03:12:52.510Z,962.37
2023-03-01T03:13:52.477Z,962.39
2023-03-01T03:14:52.479Z,962.40
2023-03-01T03:15:55.497Z,962.34
2023-03-01T03:16:52.460Z,962.31
2023-03-01T03:17:52.451Z,962.30
2023-03-01T03:18:52.498Z,962.31
2023-03-01T03:19:52.427Z,962.25
2023-03-01T03:20:52.429Z,962.31
2023-03-01T03:21:52.402Z,962.26
2023-03-01T03:22:52.402Z,962.27
2023-03-01T03:23:52.398Z,962.28
2023-03-01T03:24:52.382Z,962.32
2023-03-01T03:25:52.340Z,962.31
2023-03-01T03:26:52.360Z,962.25
2023-03-01T03:27:52.321Z,962.25
2023-03-01T03:28:52.347Z,962.30
2023-03-01T03:29:53.418Z,962.26
2023-03-01T03:30:55.333Z,962.25
2023-03-01T03:31:52.474Z,962.26
2023-03-01T03:32:52.278Z,962.23
2023-03-01T03:33:52.307Z,962.25
2023-03-01T03:34:52.250Z,962.31
2023-03-01T03:35:52.301Z,962.35
2023-03-01T03:36:52.224Z,962.33
2023-03-01T03:37:52.222Z,962.33
2023-03-01T03:38:52.245Z,962.35
2023-03-01T03:39:52.209Z,962.33
2023-03-01T03:40:52.244Z,962.30
2023-03-01T03:41:52.217Z,962.27
2023-03-01T03:42:52.179Z,962.33
2023-03-01T03:43:52.181Z,962.23
2023-03-01T03:44:52.179Z,962.25
2023-03-01T03:45:55.221Z,962.34
2023-03-01T03:46:52.141Z,962.33
2023-03-01T03:47:52.151Z,962.36
2023-03-01T03:48:52.128Z,962.35
2023-03-01T03:49:52.088Z,962.31
2023-03-01T03:50:52.147Z,962.32
2023-03-01T03:51:52.098Z,962.30
2023-03-01T03:52:52.090Z,962.30
2023-03-01T03:53:52.052Z,962.26
2023-03-01T03:54:52.043Z,962.23
2023-03-01T03:55:52.038Z,962.21
2023-03-01T03:56:52.027Z,962.27
2023-03-01T03:57:52.035Z,962.21
2023-03-01T03:58:52.029Z,962.24
2023-03-01T03:59:51.984Z,962.24
2023-03-01T04:00:55.026Z,962.32
2023-03-01T04:01:52.046Z,962.25
2023-03-01T04:02:51.972Z,962.24
2023-03-01T04:03:51.944Z,962.23
2023-03-01T04:04:51.964Z,962.27
2023-03-01T04:05:51.936Z,962.27
2023-03-01T04:06:51.914Z,962.21
2023-03-01T04:07:51.903Z,962.23
2023-03-01T04:08:51.943Z,962.26
2023-03-01T04:09:51.884Z,962.25
2023-03-01T04:10:51.898Z,962.20
2023-03-01T04:11:51.862Z,962.22
2023-03-01T04:12:51.855Z,962.27
2023-03-01T04:13:51.865Z,962.25
2023-03-01T04:14:51.854Z,962.22
2023-03-01T04:15:54.848Z,962.20
2023-03-01T04:16:51.918Z,962.19
2023-03-01T04:17:51.857Z,962.18
2023-03-01T04:18:51.794Z,962.18
2023-03-01T04:19:51.800Z,962.16
2023-03-01T04:20:51.808Z,962.16
2023-03-01T04:21:51.792Z,962.16
2023-03-01T04:22:51.808Z,962.15
2023-03-01T04:23:51.736Z,962.13
2023-03-01T04:24:51.728Z,962.12
2023-03-01T04:25:51.825Z,962.14
2023-03-01T04:26:51.736Z,962.14
2023-03-01T04:27:51.731Z,962.13
2023-03-01T04:28:51.784Z,962.15
2023-03-01T04:29:51.697Z,962.15
2023-03-01T04:30:54.682Z,962.19
2023-03-01T04:31:51.796Z,962.16
2023-03-01T04:32:51.702Z,962.18
2023-03-01T04:33:51.682Z,962.20
2023-03-01T04:34:51.627Z,962.19
2023-03-01T04:35:51.729Z,962.19
2023-03-01T04:36:51.740Z,962.18
2023-03-01T04:37:51.616Z,962.14
2023-03-01T04:38:51.589Z,962.09
2023-03-01T04:39:51.573Z,962.10
2023-03-01T04:40:51.602Z,962.07
2023-03-01T04:41:51.580Z,962.06
2023-03-01T04:42:51.568Z,962.05
2023-03-01T04:43:51.569Z,962.04
2023-03-01T04:44:51.539Z,962.06
2023-03-01T04:45:54.560Z,962.04
2023-03-01T04:46:51.518Z,962.03
2023-03-01T04:47:51.520Z,962.03
2023-03-01T04:48:51.645Z,962.01
2023-03-01T04:49:51.473Z,962.00
2023-03-01T04:50:51.469Z,962.08
2023-03-01T04:51:51.442Z,962.03
2023-03-01T04:52:51.509Z,962.02
2023-03-01T04:53:51.421Z,962.04
2023-03-01T04:54:51.449Z,962.03
2023-03-01T04:55:51.402Z,962.02
2023-03-01T04:56:51.411Z,962.04
2023-03-01T04:57:51.415Z,962.06
2023-03-01T04:58:51.406Z,962.06
2023-03-01T04:59:51.360Z,962.02
2023-03-01T05:00:54.477Z,962.03
2023-03-01T05:01:51.361Z,962.03
2023-03-01T05:02:51.382Z,962.06
2023-03-01T05:03:51.336Z,962.04
2023-03-01T05:04:51.323Z,962.07
2023-03-01T05:05:51.300Z,962.06
2023-03-01T05:06:51.295Z,962.04
2023-03-01T05:07:51.276Z,962.05
2023-03-01T05:08:51.302Z,961.99
2023-03-01T05:09:52.331Z,962.00
2023-03-01T05:10:51.252Z,962.00
2023-03-01T05:11:51.286Z,962.01
2023-03-01T05:12:51.222Z,961.97
2023-03-01T05:13:51.215Z,962.01
2023-03-01T05:14:51.236Z,961.99
2023-03-01T05:15:54.217Z,962.02
2023-03-01T05:16:51.222Z,961.93
2023-03-01T05:17:51.172Z,961.98
2023-03-01T05:18:51.193Z,961.96
2023-03-01T05:19:51.172Z,961.91
2023-03-01T05:20:51.174Z,961.89
2023-03-01T05:21:51.132Z,961.90
2023-03-01T05:22:51.244Z,961.91
2023-03-01T05:23:51.117Z,961.89
2023-03-01T05:24:51.145Z,961.90
2023-03-01T05:25:51.122Z,961.88
2023-03-01T05:26:51.088Z,961.89
2023-03-01T05:27:51.073Z,961.94
2023-03-01T05:28:51.094Z,961.88
2023-03-01T05:29:51.087Z,961.89
2023-03-01T05:30:54.081Z,961.84
2023-03-01T05:31:51.063Z,961.84
2023-03-01T05:32:51.014Z,961.82
2023-03-01T05:33:51.035Z,961.87
2023-03-01T05:34:50.996Z,961.86
2023-03-01T05:35:51.030Z,961.87
2023-03-01T05:36:51.006Z,961.88
2023-03-01T05:37:51.116Z,961.83
2023-03-01T05:38:50.984Z,961.84
2023-03-01T05:39:51.070Z,961.78
2023-03-01T05:40:50.936Z,961.76
2023-03-01T05:41:50.929Z,961.77
2023-03-01T05:42:50.936Z,961.70
2023-03-01T05:43:50.890Z,961.70
2023-03-01T05:44:50.868Z,961.69
2023-03-01T05:45:53.950Z,961.72
2023-03-01T05:46:50.895Z,961.71
2023-03-01T05:47:50.869Z,961.74
2023-03-01T05:51:08.656Z,961.64
2023-03-01T05:52:08.429Z,961.60
2023-03-01T05:53:08.413Z,961.63
2023-03-01T05:54:08.437Z,961.65
2023-03-01T05:55:08.414Z,961.58
2023-03-01T05:56:08.396Z,961.59
2023-03-01T05:57:08.380Z,961.61
2023-03-01T05:58:08.370Z,961.56
2023-03-01T06:00:31.586Z,961.58
2023-03-01T06:01:42.511Z,961.58
2023-03-01T06:02:31.202Z,961.55
2023-03-01T06:03:31.186Z,961.54
2023-03-01T06:04:31.227Z,961.51
2023-03-01T06:05:31.270Z,961.52
2023-03-01T06:06:31.499Z,961.56
2023-03-01T06:07:31.175Z,961.54
2023-03-01T06:08:31.141Z,961.51
2023-03-01T06:09:31.127Z,961.54
2023-03-01T06:10:31.145Z,961.49
2023-03-01T06:11:31.136Z,961.49
2023-03-01T06:12:31.128Z,961.46
2023-03-01T06:13:34.120Z,961.46
2023-03-01T06:14:31.099Z,961.47
2023-03-01T06:15:31.137Z,961.49
2023-03-01T06:16:31.391Z,961.48
2023-03-01T06:17:31.052Z,961.46
2023-03-01T06:18:31.068Z,961.50
2023-03-01T06:19:31.100Z,961.47
2023-03-01T06:20:31.069Z,961.48
2023-03-01T06:21:31.033Z,961.48
2023-03-01T06:22:31.057Z,961.42
2023-03-01T06:23:31.022Z,961.46
2023-03-01T06:24:30.983Z,961.47
2023-03-01T06:25:31.000Z,961.44
2023-03-01T06:26:31.331Z,961.37
2023-03-01T06:27:30.971Z,961.41
2023-03-01T06:28:33.944Z,961.40
2023-03-01T06:29:30.982Z,961.38
2023-03-01T06:30:30.966Z,961.42
2023-03-01T06:31:30.966Z,961.43
2023-03-01T06:32:40.084Z,961.41
2023-03-01T06:33:30.916Z,961.41
2023-03-01T06:34:30.881Z,961.43
2023-03-01T06:35:31.095Z,961.43
2023-03-01T06:36:31.217Z,961.41
2023-03-01T06:37:30.868Z,961.40
2023-03-01T06:38:30.892Z,961.39
2023-03-01T06:39:30.836Z,961.43
2023-03-01T06:40:30.848Z,961.45
2023-03-01T06:41:30.813Z,961.44
2023-03-01T06:42:30.834Z,961.42
2023-03-01T06:43:33.913Z,961.49
2023-03-01T06:44:30.860Z,961.47
2023-03-01T06:45:30.789Z,961.48
2023-03-01T06:46:31.157Z,961.47
2023-03-01T06:47:30.785Z,961.50
2023-03-01T06:48:30.765Z,961.45
2023-03-01T06:49:30.781Z,961.46
2023-03-01T06:50:30.781Z,961.47
2023-03-01T06:51:30.731Z,961.45
2023-03-01T06:52:30.704Z,961.47
2023-03-01T06:53:30.697Z,961.49
2023-03-01T06:54:30.689Z,961.51
2023-03-01T06:55:30.688Z,961.46
2023-03-01T06:56:30.995Z,961.44
2023-03-01T06:57:30.648Z,961.46
2023-03-01T06:58:33.638Z,961.49
2023-03-01T06:59:30.654Z,961.52
2023-03-01T07:00:30.876Z,961.45
2023-03-01T07:01:30.625Z,961.50
2023-03-01T07:02:30.685Z,961.52
2023-03-01T07:03:37.760Z,961.50
2023-03-01T07:04:30.601Z,961.46
2023-03-01T07:05:30.609Z,961.45
2023-03-01T07:06:30.987Z,961.46
2023-03-01T07:07:30.595Z,961.53
2023-03-01T07:08:30.535Z,961.47
2023-03-01T07:09:30.527Z,961.49
2023-03-01T07:10:30.559Z,961.48
2023-03-01T07:11:30.533Z,961.49
2023-03-01T07:12:30.499Z,961.57
2023-03-01T07:13:33.488Z,961.55
2023-03-01T07:14:30.492Z,961.60
2023-03-01T07:15:31.454Z,961.48
2023-03-01T07:16:30.782Z,961.44
2023-03-01T07:17:30.480Z,961.43
2023-03-01T07:18:30.464Z,961.43
2023-03-01T07:19:30.458Z,961.48
2023-03-01T07:20:30.426Z,961.46
2023-03-01T07:21:30.460Z,961.44
2023-03-01T07:22:30.399Z,961.49
2023-03-01T07:23:30.427Z,961.44
2023-03-01T07:24:30.419Z,961.43
2023-03-01T07:25:30.368Z,961.41
2023-03-01T07:26:30.851Z,961.44
2023-03-01T07:27:30.353Z,961.43
2023-03-01T07:28:33.384Z,961.43
2023-03-01T07:29:30.373Z,961.43
2023-03-01T07:30:30.342Z,961.43
2023-03-01T07:31:30.338Z,961.41
2023-03-01T07:32:30.466Z,961.45
2023-03-01T07:33:30.291Z,961.43
2023-03-01T07:34:30.311Z,961.44
2023-03-01T07:35:30.308Z,961.45
2023-03-01T07:36:30.711Z,961.48
2023-03-01T07:37:30.283Z,961.49
2023-03-01T07:38:30.265Z,961.46
2023-03-01T07:39:30.282Z,961.47
2023-03-01T07:40:30.245Z,961.47
2023-03-01T07:41:30.202Z,961.51
2023-03-01T07:42:30.201Z,961.51
2023-03-01T07:43:33.226Z,961.53
2023-03-01T07:44:30.227Z,961.47
2023-03-01T07:45:30.236Z,961.47
2023-03-01T07:46:30.495Z,961.45
2023-03-01T07:47:30.154Z,961.47
2023-03-01T07:48:30.183Z,961.42
2023-03-01T07:49:30.152Z,961.38
2023-03-01T07:50:30.276Z,961.39
2023-03-01T07:51:30.132Z,961.37
2023-03-01T07:52:30.137Z,961.36
2023-03-01T07:53:30.115Z,961.33
2023-03-01T07:54:30.084Z,961.36
2023-03-01T07:55:30.130Z,961.35
2023-03-01T07:56:30.454Z,961.34
2023-03-01T07:57:30.083Z,961.34
2023-03-01T07:58:33.082Z,961.34
2023-03-01T07:59:30.192Z,961.36
2023-03-01T08:00:30.041Z,961.35
2023-03-01T08:01:30.053Z,961.36
2023-03-01T08:02:30.013Z,961.37
2023-03-01T08:03:30.049Z,961.37
2023-03-01T08:04:29.991Z,961.36
2023-03-01T08:05:30.025Z,961.39
2023-03-01T08:06:30.262Z,961.36
2023-03-01T08:07:29.947Z,961.36
2023-03-01T08:08:29.934Z,961.33
2023-03-01T08:09:29.934Z,961.36
2023-03-01T08:10:29.913Z,961.34
2023-03-01T08:11:29.984Z,961.37
2023-03-01T08:12:29.897Z,961.33
2023-03-01T08:13:32.903Z,961.35
2023-03-01T08:14:29.891Z,961.34
2023-03-01T08:15:29.860Z,961.35
2023-03-01T08:16:30.386Z,961.33
2023-03-01T08:17:29.848Z,961.32
2023-03-01T08:18:29.851Z,961.35
2023-03-01T08:19:29.823Z,961.29
2023-03-01T08:20:29.854Z,961.31
2023-03-01T08:21:29.828Z,961.31
2023-03-01T08:22:29.959Z,961.33
2023-03-01T08:23:29.810Z,961.30
2023-03-01T08:24:29.804Z,961.29
2023-03-01T08:25:29.790Z,961.28
2023-03-01T08:26:30.110Z,961.31
2023-03-01T08:27:29.741Z,961.25
2023-03-01T08:28:32.734Z,961.24
2023-03-01T08:29:29.766Z,961.22
2023-03-01T08:30:29.737Z,961.32
2023-03-01T08:31:29.830Z,961.24
2023-03-01T08:32:29.747Z,961.27
2023-03-01T08:33:29.871Z,961.23
2023-03-01T08:34:29.695Z,961.26
2023-03-01T08:35:29.663Z,961.18
2023-03-01T08:36:30.137Z,961.21
2023-03-01T08:37:29.667Z,961.18
2023-03-01T08:38:29.746Z,961.16
2023-03-01T08:39:29.689Z,961.12
2023-03-01T08:40:29.621Z,961.15
2023-03-01T08:41:29.724Z,961.13
2023-03-01T08:42:29.625Z,961.12
2023-03-01T08:43:32.600Z,961.19
2023-03-01T08:44:29.602Z,961.19
2023-03-01T08:45:29.713Z,961.11
2023-03-01T08:46:29.978Z,961.17
2023-03-01T08:47:29.575Z,961.16
2023-03-01T08:48:29.531Z,961.15
2023-03-01T08:49:29.548Z,961.14
2023-03-01T08:50:29.542Z,961.18
2023-03-01T08:51:29.528Z,961.22
2023-03-01T08:52:29.518Z,961.20
2023-03-01T08:53:29.480Z,961.20
2023-03-01T08:54:29.489Z,961.17
2023-03-01T08:55:29.498Z,961.24
2023-03-01T08:56:29.867Z,961.20
2023-03-01T08:57:29.465Z,961.15
2023-03-01T08:58:32.463Z,961.15
2023-03-01T08:59:29.489Z,961.19
2023-03-01T09:00:29.448Z,961.16
2023-03-01T09:01:29.606Z,961.18
2023-03-01T09:02:29.595Z,961.15
2023-03-01T09:03:29.410Z,961.11
2023-03-01T09:04:29.381Z,961.11
2023-03-01T09:05:29.366Z,961.12
2023-03-01T09:06:29.591Z,961.15
2023-03-01T09:07:29.413Z,961.13
2023-03-01T09:08:29.375Z,961.16
2023-03-01T09:09:29.350Z,961.15
2023-03-01T09:10:29.334Z,961.15
2023-03-01T09:11:29.290Z,961.16
2023-03-01T09:12:29.365Z,961.14
2023-03-01T09:13:32.312Z,961.10
2023-03-01T09:14:29.318Z,961.13
2023-03-01T09:15:29.285Z,961.04
2023-03-01T09:16:29.932Z,961.01
2023-03-01T09:17:29.269Z,961.00
2023-03-01T09:18:29.241Z,960.99
2023-03-01T09:19:29.224Z,961.01
2023-03-01T09:20:29.220Z,960.96
2023-03-01T09:21:39.497Z,960.95
2023-03-01T09:22:29.193Z,960.92
2023-03-01T09:23:29.245Z,960.87
2023-03-01T09:24:29.199Z,960.88
2023-03-01T09:25:29.182Z,960.90
2023-03-01T09:26:29.786Z,960.87
2023-03-01T09:27:29.166Z,960.91
2023-03-01T09:28:32.188Z,960.87
2023-03-01T09:29:29.160Z,960.91
2023-03-01T09:30:29.135Z,960.95
2023-03-01T09:31:29.102Z,960.93
2023-03-01T09:32:29.132Z,960.90
2023-03-01T09:33:29.112Z,960.91
2023-03-01T09:34:29.089Z,960.92
2023-03-01T09:35:29.220Z,960.90
2023-03-01T09:36:29.526Z,960.89
2023-03-01T09:37:29.042Z,960.93
2023-03-01T09:38:29.040Z,960.96
2023-03-01T09:39:29.136Z,961.00
2023-03-01T09:40:29.039Z,960.97
2023-03-01T09:41:29.117Z,961.00
2023-03-01T09:42:28.977Z,960.96
2023-03-01T09:43:32.007Z,961.00
2023-03-01T09:44:29.030Z,960.98
2023-03-01T09:45:28.968Z,961.02
2023-03-01T09:46:29.375Z,961.03
2023-03-01T09:47:28.969Z,961.03
2023-03-01T09:48:28.948Z,960.99
2023-03-01T09:49:29.024Z,960.92
2023-03-01T09:50:28.923Z,960.93
2023-03-01T09:51:28.902Z,960.92
2023-03-01T09:52:28.880Z,960.94
2023-03-01T09:53:28.881Z,960.90
2023-03-01T09:54:28.862Z,960.91
2023-03-01T09:55:28.862Z,960.90
2023-03-01T09:56:29.379Z,960.85
2023-03-01T09:57:28.854Z,960.85
2023-03-01T09:58:31.832Z,960.85
2023-03-01T09:59:28.854Z,960.85
2023-03-01T10:00:28.865Z,960.84
2023-03-01T10:01:29.148Z,960.81
2023-03-01T10:02:28.785Z,960.84
2023-03-01T10:03:28.826Z,960.80
2023-03-01T10:04:28.844Z,960.76
2023-03-01T10:05:28.784Z,960.75
2023-03-01T10:06:35.124Z,960.78
2023-03-01T10:07:28.728Z,960.78
2023-03-01T10:08:28.736Z,960.78
2023-03-01T10:09:28.744Z,960.77
2023-03-01T10:10:28.732Z,960.82
2023-03-01T10:11:28.752Z,960.78
2023-03-01T10:12:28.703Z,960.79
2023-03-01T10:13:31.680Z,960.79
2023-03-01T10:14:28.678Z,960.82
2023-03-01T10:15:28.711Z,960.79
2023-03-01T10:16:28.668Z,960.80
2023-03-01T10:17:28.658Z,960.78
2023-03-01T10:18:28.613Z,960.77
2023-03-01T10:19:28.636Z,960.83
2023-03-01T10:20:28.624Z,960.74
2023-03-01T10:21:28.641Z,960.81
2023-03-01T10:22:28.757Z,960.76
2023-03-01T10:23:28.601Z,960.78
2023-03-01T10:24:28.547Z,960.78
2023-03-01T10:25:28.567Z,960.77
2023-03-01T10:26:28.594Z,960.70
2023-03-01T10:27:28.564Z,960.73
2023-03-01T10:28:31.518Z,960.72
2023-03-01T10:29:28.546Z,960.74
2023-03-01T10:30:28.488Z,960.70
2023-03-01T10:31:28.968Z,960.71
2023-03-01T10:32:28.532Z,960.71
2023-03-01T10:33:28.520Z,960.69
2023-03-01T10:34:28.485Z,960.70
2023-03-01T10:35:28.521Z,960.69
2023-03-01T10:36:28.635Z,960.69
2023-03-01T10:37:28.547Z,960.65
2023-03-01T10:38:28.422Z,960.63
2023-03-01T10:39:28.436Z,960.61
2023-03-01T10:40:28.388Z,960.59
2023-03-01T10:41:28.427Z,960.61
2023-03-01T10:42:28.397Z,960.61
2023-03-01T10:43:31.379Z,960.62
2023-03-01T10:44:28.359Z,960.61
2023-03-01T10:45:28.338Z,960.59
2023-03-01T10:46:28.402Z,960.58
2023-03-01T10:47:28.328Z,960.62
2023-03-01T10:48:28.338Z,960.59
2023-03-01T10:49:28.331Z,960.58
2023-03-01T10:50:28.319Z,960.62
2023-03-01T10:51:28.520Z,960.58
2023-03-01T10:52:28.303Z,960.55
2023-03-01T10:53:28.269Z,960.59
2023-03-01T10:54:28.248Z,960.61
2023-03-01T10:55:28.251Z,960.60
2023-03-01T10:56:28.252Z,960.62
2023-03-01T10:57:28.237Z,960.60
2023-03-01T10:58:31.210Z,960.65
2023-03-01T10:59:28.222Z,960.57
2023-03-01T11:00:28.218Z,960.54
2023-03-01T11:01:28.283Z,960.54
2023-03-01T11:02:28.218Z,960.56
2023-03-01T11:03:28.186Z,960.60
2023-03-01T11:04:28.192Z,960.59
2023-03-01T11:05:28.139Z,960.59
2023-03-01T11:06:28.152Z,960.60
2023-03-01T11:07:28.147Z,960.62
2023-03-01T11:08:28.132Z,960.63
2023-03-01T11:09:28.102Z,960.60
2023-03-01T11:10:28.114Z,960.62
2023-03-01T11:11:28.433Z,960.63
2023-03-01T11:12:28.070Z,960.53
2023-03-01T11:13:31.057Z,960.61
2023-03-01T11:14:28.393Z,960.60
2023-03-01T11:15:28.048Z,960.58
2023-03-01T11:16:28.196Z,960.59
2023-03-01T11:17:28.054Z,960.53
2023-03-01T11:18:45.900Z,960.53
2023-03-01T11:19:29.005Z,960.56
2023-03-01T11:20:29.215Z,960.57
2023-03-01T11:21:28.074Z,960.58
2023-03-01T11:22:27.988Z,960.53
2023-03-01T11:23:27.978Z,960.59
2023-03-01T11:24:28.001Z,960.56
2023-03-01T11:25:27.940Z,960.62
2023-03-01T11:26:27.956Z,960.58
2023-03-01T11:27:27.914Z,960.58
2023-03-01T11:28:30.935Z,960.56
2023-03-01T11:29:29.697Z,960.55
2023-03-01T11:30:28.894Z,960.62
2023-03-01T11:31:27.950Z,960.58
2023-03-01T11:32:28.177Z,960.52
2023-03-01T11:33:27.903Z,960.49
2023-03-01T11:34:27.862Z,960.49
2023-03-01T11:35:27.867Z,960.49
2023-03-01T11:36:27.874Z,960.45
2023-03-01T11:37:27.815Z,960.43
2023-03-01T11:38:27.840Z,960.49
2023-03-01T11:39:27.820Z,960.45
2023-03-01T11:40:27.823Z,960.47
2023-03-01T11:41:27.796Z,960.45
2023-03-01T11:42:27.808Z,960.44
2023-03-01T11:43:30.778Z,960.36
2023-03-01T11:44:27.792Z,960.43
2023-03-01T11:45:27.762Z,960.36
2023-03-01T11:46:27.877Z,960.36
2023-03-01T11:47:27.823Z,960.30
2023-03-01T11:48:30.763Z,960.34
2023-03-01T11:49:28.722Z,960.33
2023-03-01T11:50:27.681Z,960.33
2023-03-01T11:51:27.714Z,960.32
2023-03-01T11:52:27.667Z,960.31
2023-03-01T11:53:27.709Z,960.34
2023-03-01T11:54:27.867Z,960.34
2023-03-01T11:55:27.740Z,960.35
2023-03-01T11:56:27.639Z,960.37
2023-03-01T11:57:41.123Z,960.36
2023-03-01T11:58:31.640Z,960.34
2023-03-01T11:59:27.608Z,960.40
2023-03-01T12:00:27.628Z,960.32
2023-03-01T12:01:27.575Z,960.28
2023-03-01T12:02:27.554Z,960.28
2023-03-01T12:03:27.552Z,960.25
2023-03-01T12:04:27.596Z,960.23
2023-03-01T12:05:27.565Z,960.27
2023-03-01T12:06:27.523Z,960.25
2023-03-01T12:07:27.506Z,960.17
2023-03-01T12:08:27.530Z,960.17
2023-03-01T12:09:27.507Z,960.20
2023-03-01T12:10:27.478Z,960.16
2023-03-01T12:11:27.496Z,960.15
2023-03-01T12:12:27.487Z,960.13
2023-03-01T12:13:30.448Z,960.14
2023-03-01T12:14:27.477Z,960.11
2023-03-01T12:15:27.429Z,960.07
2023-03-01T12:16:38.498Z,960.05
2023-03-01T12:17:27.432Z,960.06
2023-03-01T12:18:27.428Z,959.98
2023-03-01T12:19:27.379Z,960.02
2023-03-01T12:20:27.420Z,960.00
2023-03-01T12:21:27.366Z,959.97
2023-03-01T12:22:27.466Z,960.00
2023-03-01T12:23:27.371Z,959.94
2023-03-01T12:24:27.353Z,959.93
2023-03-01T12:25:27.340Z,959.95
2023-03-01T12:26:27.339Z,959.97
2023-03-01T12:27:27.301Z,960.04
2023-03-01T12:28:30.320Z,959.94
2023-03-01T12:29:27.289Z,959.94
2023-03-01T12:30:27.265Z,959.97
2023-03-01T12:31:27.361Z,959.94
2023-03-01T12:32:27.265Z,959.97